createdAt,value
2023-03-18T00:01:27.292Z,3.30
2023-03-18T00:03:54.349Z,3.23
2023-03-18T00:06:22.381Z,3.30
2023-03-18T00:08:50.906Z,2.80
2023-03-18T00:11:20.173Z,3.10
2023-03-18T00:13:48.202Z,3.13
2023-03-18T00:16:16.018Z,3.40
2023-03-18T00:18:43.496Z,3.20
2023-03-18T00:21:11.271Z,3.17
2023-03-18T00:23:38.881Z,3.40
2023-03-18T00:26:06.008Z,3.13
2023-03-18T00:28:33.037Z,3.03
2023-03-18T00:31:08.857Z,3.40
2023-03-18T00:33:38.260Z,3.60
2023-03-18T00:36:06.784Z,3.60
2023-03-18T00:38:33.875Z,3.13
2023-03-18T00:41:15.995Z,2.97
2023-03-18T00:43:52.926Z,3.57
2023-03-18T00:46:26.898Z,3.30
2023-03-18T00:48:56.458Z,3.63
2023-03-18T00:51:26.119Z,3.10
2023-03-18T00:53:55.804Z,3.40
2023-03-18T00:56:25.817Z,3.43
2023-03-18T00:58:54.046Z,3.13
2023-03-18T01:01:22.566Z,3.10
2023-03-18T01:03:50.472Z,3.30
2023-03-18T01:06:22.764Z,3.30
2023-03-18T01:08:50.476Z,3.20
2023-03-18T01:11:18.247Z,3.30
2023-03-18T01:13:46.402Z,3.20
2023-03-18T01:16:14.504Z,3.60
2023-03-18T01:18:41.951Z,3.10
2023-03-18T01:21:10.466Z,3.13
2023-03-18T01:23:38.492Z,3.50
2023-03-18T01:26:06.766Z,3.40
2023-03-18T01:28:34.355Z,3.47
2023-03-18T01:31:01.698Z,3.30
2023-03-18T01:33:30.161Z,3.60
2023-03-18T01:36:00.082Z,3.20
2023-03-18T01:38:30.558Z,3.50
2023-03-18T01:40:59.127Z,3.30
2023-03-18T01:43:30.763Z,3.07
2023-03-18T01:46:00.871Z,2.97
2023-03-18T01:48:34.100Z,3.33
2023-03-18T01:51:06.112Z,3.13
2023-03-18T01:53:39.306Z,3.73
2023-03-18T01:56:07.987Z,3.40
2023-03-18T01:58:45.548Z,3.30
2023-03-18T02:01:20.409Z,3.67
2023-03-18T02:03:48.511Z,4.00
2023-03-18T02:06:15.464Z,3.80
2023-03-18T02:08:42.276Z,3.43
2023-03-18T02:11:10.660Z,4.00
2023-03-18T02:13:41.753Z,4.20
2023-03-18T02:16:34.323Z,3.70
2023-03-18T02:19:31.568Z,4.20
2023-03-18T02:22:10.145Z,3.67
2023-03-18T02:25:04.148Z,4.70
2023-03-18T02:27:35.641Z,4.30
2023-03-18T02:30:21.198Z,4.40
2023-03-18T02:32:51.343Z,4.70
2023-03-18T02:35:18.105Z,4.60
2023-03-18T02:37:45.141Z,4.20
2023-03-18T02:40:19.189Z,4.50
2023-03-18T02:42:47.107Z,4.40
2023-03-18T02:45:30.963Z,4.57
2023-03-18T02:48:00.131Z,4.07
2023-03-18T02:50:27.092Z,4.77
2023-03-18T02:52:54.154Z,4.57
2023-03-18T02:55:21.308Z,5.17
2023-03-18T02:57:48.412Z,4.77
2023-03-18T03:00:16.612Z,5.00
2023-03-18T03:02:43.829Z,4.80
2023-03-18T03:05:11.296Z,5.23
2023-03-18T03:07:38.241Z,5.10
2023-03-18T03:10:07.000Z,5.03
2023-03-18T03:12:34.807Z,5.10
2023-03-18T03:15:01.705Z,5.03
2023-03-18T03:17:31.368Z,5.60
2023-03-18T03:19:58.333Z,5.60
2023-03-18T03:22:25.431Z,5.13
2023-03-18T03:24:52.651Z,5.57
2023-03-18T03:27:19.926Z,5.67
2023-03-18T03:29:46.840Z,5.63
2023-03-18T03:32:14.133Z,5.43
2023-03-18T03:34:41.750Z,5.53
2023-03-18T03:37:09.221Z,5.40
2023-03-18T03:39:36.173Z,5.20
2023-03-18T03:42:03.068Z,5.57
2023-03-18T03:44:30.663Z,5.27
2023-03-18T03:46:57.996Z,5.77
2023-03-18T03:49:25.351Z,5.47
2023-03-18T03:51:52.484Z,5.13
2023-03-18T03:54:20.170Z,5.00
2023-03-18T03:56:48.141Z,5.20
2023-03-18T03:59:15.133Z,5.50
2023-03-18T04:01:42.114Z,5.55
2023-03-18T04:04:08.967Z,5.23
2023-03-18T04:06:35.988Z,5.57
2023-03-18T04:09:04.577Z,5.20
2023-03-18T04:11:31.597Z,5.27
2023-03-18T04:13:58.493Z,5.90
2023-03-18T04:16:25.363Z,5.33
2023-03-18T04:18:52.227Z,5.80
2023-03-18T04:21:19.190Z,6.20
2023-03-18T04:23:46.705Z,6.13
2023-03-18T04:26:13.612Z,6.03
2023-03-18T04:28:40.825Z,6.43
2023-03-18T04:31:08.010Z,6.57
2023-03-18T04:33:35.035Z,5.93
2023-03-18T04:36:01.940Z,6.60
2023-03-18T04:38:29.051Z,6.53
2023-03-18T04:40:58.440Z,6.33
2023-03-18T04:43:25.410Z,6.43
2023-03-18T04:45:53.237Z,7.43
2023-03-18T04:48:20.114Z,7.27
2023-03-18T04:50:47.076Z,6.93
2023-03-18T04:53:13.920Z,7.20
2023-03-18T04:55:41.108Z,7.40
2023-03-18T04:58:07.959Z,7.70
2023-03-18T05:00:35.340Z,6.87
2023-03-18T05:03:03.376Z,7.93
2023-03-18T05:05:31.208Z,7.50
2023-03-18T05:07:58.701Z,8.10
2023-03-18T05:10:25.801Z,7.57
2023-03-18T05:12:52.790Z,7.70
2023-03-18T05:15:19.894Z,8.47
2023-03-18T05:17:47.672Z,8.40
2023-03-18T05:20:14.866Z,8.17
2023-03-18T05:22:42.385Z,8.20
2023-03-18T05:25:11.643Z,8.87
2023-03-18T05:27:39.150Z,8.87
2023-03-18T05:30:07.439Z,8.07
2023-03-18T05:32:34.388Z,9.23
2023-03-18T05:35:01.467Z,8.73
2023-03-18T05:37:28.479Z,9.33
2023-03-18T05:39:55.621Z,9.37
2023-03-18T05:42:22.638Z,10.33
2023-03-18T05:44:50.103Z,10.37
2023-03-18T05:47:17.038Z,10.13
2023-03-18T05:49:43.968Z,10.33
2023-03-18T05:52:11.113Z,11.00
2023-03-18T05:54:38.393Z,10.47
2023-03-18T05:57:05.333Z,9.67
2023-03-18T05:59:32.230Z,10.50
2023-03-18T06:01:59.358Z,11.07
2023-03-18T06:04:27.364Z,10.67
2023-03-18T06:06:55.408Z,11.67
2023-03-18T06:09:22.695Z,11.97
2023-03-18T06:11:49.577Z,11.20
2023-03-18T06:14:16.701Z,11.00
2023-03-18T06:16:45.021Z,11.97
2023-03-18T06:19:12.178Z,11.70
2023-03-18T06:21:39.936Z,11.90
2023-03-18T06:24:08.437Z,12.07
2023-03-18T06:26:35.773Z,11.83
2023-03-18T06:29:04.233Z,11.73
2023-03-18T06:31:31.610Z,11.10
2023-03-18T06:34:00.877Z,11.10
2023-03-18T06:36:28.447Z,11.37
2023-03-18T06:38:56.251Z,12.03
2023-03-18T06:41:23.113Z,11.50
2023-03-18T06:43:50.837Z,11.70
2023-03-18T06:46:18.662Z,11.67
2023-03-18T06:48:45.818Z,11.33
2023-03-18T06:51:12.884Z,11.17
2023-03-18T06:53:40.345Z,11.83
2023-03-18T06:56:08.128Z,11.63
2023-03-18T06:58:35.038Z,10.63
2023-03-18T07:01:03.257Z,11.23
2023-03-18T07:03:30.235Z,12.00
2023-03-18T07:05:57.553Z,12.13
2023-03-18T07:08:24.433Z,11.67
2023-03-18T07:10:57.369Z,11.87
2023-03-18T07:13:24.892Z,12.07
2023-03-18T07:15:51.856Z,11.13
2023-03-18T07:18:18.880Z,12.07
2023-03-18T07:20:46.190Z,11.50
2023-03-18T07:23:13.434Z,11.30
2023-03-18T07:25:40.365Z,12.10
2023-03-18T07:28:07.482Z,11.83
2023-03-18T07:30:35.216Z,11.33
2023-03-18T07:33:02.549Z,10.87
2023-03-18T07:35:29.776Z,11.10
2023-03-18T07:37:57.734Z,11.23
2023-03-18T07:40:24.930Z,10.83
2023-03-18T07:42:51.919Z,10.87
2023-03-18T07:45:18.787Z,11.47
2023-03-18T07:47:47.174Z,10.67
2023-03-18T07:50:14.533Z,10.40
2023-03-18T07:52:42.199Z,10.87
2023-03-18T07:55:11.742Z,11.83
2023-03-18T07:57:39.672Z,10.33
2023-03-18T08:00:13.614Z,10.80
2023-03-18T08:02:40.689Z,10.27
2023-03-18T08:05:08.326Z,11.53
2023-03-18T08:07:36.421Z,10.47
2023-03-18T08:10:04.153Z,11.27
2023-03-18T08:12:49.022Z,10.53
2023-03-18T08:15:19.067Z,11.03
2023-03-18T08:17:46.086Z,10.13
2023-03-18T08:20:13.667Z,9.80
2023-03-18T08:22:40.475Z,11.83
2023-03-18T08:25:07.945Z,11.57
2023-03-18T08:27:35.489Z,11.87
2023-03-18T08:30:03.760Z,11.43
2023-03-18T08:32:31.119Z,11.73
2023-03-18T08:34:58.197Z,11.13
2023-03-18T08:37:25.206Z,11.13
2023-03-18T08:39:52.065Z,10.77
2023-03-18T08:42:19.486Z,11.13
2023-03-18T08:44:46.447Z,11.50
2023-03-18T08:47:13.546Z,12.80
2023-03-18T08:49:40.524Z,12.10
2023-03-18T08:52:07.706Z,11.37
2023-03-18T08:54:35.324Z,13.07
2023-03-18T08:57:03.121Z,12.13
2023-03-18T08:59:29.976Z,12.30
2023-03-18T09:01:56.735Z,12.93
2023-03-18T09:04:27.335Z,13.70
2023-03-18T09:06:54.236Z,13.60
2023-03-18T09:09:22.910Z,14.90
2023-03-18T09:11:53.154Z,13.73
2023-03-18T09:14:20.318Z,14.47
2023-03-18T09:16:47.516Z,14.20
2023-03-18T09:19:14.631Z,13.77
2023-03-18T09:21:41.651Z,13.50
2023-03-18T09:24:08.718Z,13.53
2023-03-18T09:26:35.646Z,13.40
2023-03-18T09:29:02.889Z,13.43
2023-03-18T09:31:30.887Z,13.70
2023-03-18T09:33:57.745Z,13.83
2023-03-18T09:36:24.797Z,13.30
2023-03-18T09:38:51.857Z,12.97
2023-03-18T09:41:21.541Z,12.77
2023-03-18T09:44:15.360Z,12.50
2023-03-18T09:47:06.939Z,12.63
2023-03-18T09:49:59.515Z,12.90
2023-03-18T09:52:44.157Z,11.83
2023-03-18T09:55:30.646Z,13.00
2023-03-18T09:58:03.338Z,12.17
2023-03-18T10:00:34.795Z,10.83
2023-03-18T10:03:06.466Z,11.50
2023-03-18T10:05:50.166Z,10.83
2023-03-18T10:08:54.596Z,11.43
2023-03-18T10:11:31.162Z,9.70
2023-03-18T10:14:27.318Z,10.63
2023-03-18T10:17:03.796Z,9.47
2023-03-18T10:19:31.914Z,9.13
2023-03-18T10:22:19.209Z,9.33
2023-03-18T10:24:51.919Z,8.63
2023-03-18T10:27:38.931Z,8.70
2023-03-18T10:30:43.652Z,9.47
2023-03-18T10:33:22.276Z,9.00
2023-03-18T10:36:05.652Z,9.10
2023-03-18T10:38:45.062Z,9.03
2023-03-18T10:41:30.021Z,8.23
2023-03-18T10:43:57.685Z,7.70
2023-03-18T10:46:27.345Z,7.97
2023-03-18T10:49:10.973Z,7.50
2023-03-18T10:51:50.463Z,8.03
2023-03-18T10:54:36.945Z,7.60
2023-03-18T10:57:04.318Z,6.67
2023-03-18T10:59:31.584Z,7.63
2023-03-18T11:02:13.955Z,6.60
2023-03-18T11:04:57.978Z,6.10
2023-03-18T11:07:26.975Z,7.10
2023-03-18T11:09:55.057Z,6.47
2023-03-18T11:12:29.019Z,6.97
2023-03-18T11:14:56.785Z,7.17
2023-03-18T11:17:26.645Z,7.50
2023-03-18T11:20:08.300Z,6.97
2023-03-18T11:22:37.214Z,5.80
2023-03-18T11:25:16.901Z,5.50
2023-03-18T11:27:49.506Z,6.37
2023-03-18T11:30:34.890Z,6.43
2023-03-18T11:33:10.780Z,6.90
2023-03-18T11:35:50.466Z,7.13
2023-03-18T11:38:29.278Z,7.90
2023-03-18T11:41:26.673Z,7.57
2023-03-18T11:44:02.470Z,7.47
2023-03-18T11:46:40.874Z,7.63
2023-03-18T11:49:15.154Z,7.27
2023-03-18T11:52:00.513Z,6.93
2023-03-18T11:54:46.132Z,7.10
2023-03-18T11:57:41.934Z,6.63
2023-03-18T12:00:21.053Z,6.57
2023-03-18T12:03:15.658Z,7.27
2023-03-18T12:06:07.179Z,7.10
2023-03-18T12:08:50.585Z,7.63
2023-03-18T12:11:28.964Z,7.30
2023-03-18T12:14:01.719Z,7.40
2023-03-18T12:16:43.751Z,6.40
2023-03-18T12:19:44.259Z,6.67
2023-03-18T12:22:26.735Z,5.80
2023-03-18T12:25:02.798Z,6.87
2023-03-18T12:27:40.739Z,6.73
2023-03-18T12:30:35.701Z,5.97
2023-03-18T12:33:27.433Z,5.27
2023-03-18T12:36:15.761Z,5.80
2023-03-18T12:39:14.863Z,5.80
2023-03-18T12:42:03.803Z,4.97
2023-03-18T12:44:50.153Z,5.70
2023-03-18T12:47:30.416Z,5.10
2023-03-18T12:50:13.036Z,4.97
2023-03-18T12:52:46.651Z,5.10
2023-03-18T12:55:25.557Z,6.03
2023-03-18T12:57:59.840Z,5.67
2023-03-18T13:00:40.323Z,5.33
2023-03-18T13:03:13.730Z,5.43
2023-03-18T13:05:47.911Z,5.70
2023-03-18T13:08:41.875Z,5.23
2023-03-18T13:11:22.223Z,5.57
2023-03-18T13:13:55.200Z,4.90
2023-03-18T13:16:25.959Z,6.37
2023-03-18T13:18:56.422Z,5.10
2023-03-18T13:21:29.899Z,4.70
2023-03-18T13:24:23.077Z,4.30
2023-03-18T13:27:24.816Z,4.70
2023-03-18T13:30:02.232Z,4.70
2023-03-18T13:32:51.082Z,4.27
2023-03-18T13:35:43.820Z,4.50
2023-03-18T13:38:31.302Z,5.83
2023-03-18T13:41:29.014Z,4.60
2023-03-18T13:43:59.054Z,4.83
2023-03-18T13:46:30.888Z,4.90
2023-03-18T13:49:00.695Z,5.53
2023-03-18T13:51:28.406Z,8.87
2023-03-18T13:54:01.243Z,8.97
2023-03-18T13:56:55.755Z,8.53
2023-03-18T13:59:34.827Z,8.40
2023-03-18T14:02:23.206Z,8.30
2023-03-18T14:04:52.445Z,8.40
2023-03-18T14:07:23.906Z,9.10
2023-03-18T14:10:18.730Z,8.77
2023-03-18T14:12:51.438Z,9.13
2023-03-18T14:15:29.946Z,8.27
2023-03-18T14:17:58.802Z,8.93
2023-03-18T14:20:38.793Z,8.20
2023-03-18T14:23:42.317Z,8.70
2023-03-18T14:26:24.433Z,9.83
2023-03-18T14:29:16.385Z,10.60
2023-03-18T14:31:43.411Z,15.10
2023-03-18T14:34:19.636Z,8.10
2023-03-18T14:37:18.086Z,6.50
2023-03-18T14:39:48.234Z,7.90
2023-03-18T14:42:28.867Z,24.93
2023-03-18T14:45:14.394Z,22.37
2023-03-18T14:47:54.071Z,8.47
2023-03-18T14:50:40.748Z,13.30
2023-03-18T14:53:15.560Z,10.57
2023-03-18T14:55:44.090Z,11.33
2023-03-18T14:58:19.638Z,12.90
2023-03-18T15:00:51.753Z,13.53
2023-03-18T15:03:27.923Z,14.10
2023-03-18T15:06:00.993Z,15.17
2023-03-18T15:08:48.202Z,16.37
2023-03-18T15:11:16.802Z,15.67
2023-03-18T15:13:45.017Z,15.20
2023-03-18T15:16:18.447Z,16.00
2023-03-18T15:18:45.900Z,16.20
2023-03-18T15:21:23.466Z,16.17
2023-03-18T15:23:53.147Z,15.90
2023-03-18T15:26:24.160Z,14.90
2023-03-18T15:28:59.066Z,15.93
2023-03-18T15:31:38.901Z,16.00
2023-03-18T15:34:20.453Z,16.27
2023-03-18T15:37:01.730Z,22.00
2023-03-18T15:39:30.978Z,17.57
2023-03-18T15:42:00.946Z,15.07
2023-03-18T15:44:36.304Z,16.37
2023-03-18T15:47:16.883Z,16.00
2023-03-18T15:49:54.776Z,16.77
2023-03-18T15:52:43.516Z,15.37
2023-03-18T15:55:30.412Z,16.10
2023-03-18T15:57:58.632Z,15.60
2023-03-18T16:00:25.884Z,15.83
2023-03-18T16:02:52.972Z,15.53
2023-03-18T16:05:26.025Z,15.10
2023-03-18T16:07:54.103Z,14.93
2023-03-18T16:10:23.096Z,16.00
2023-03-18T16:12:58.281Z,14.10
2023-03-18T16:15:26.842Z,15.23
2023-03-18T16:17:55.546Z,13.70
2023-03-18T16:20:24.466Z,16.10
2023-03-18T16:22:52.200Z,14.50
2023-03-18T16:25:19.777Z,14.57
2023-03-18T16:27:49.677Z,16.43
2023-03-18T16:30:26.229Z,14.47
2023-03-18T16:32:54.926Z,15.37
2023-03-18T16:35:24.793Z,13.73
2023-03-18T16:37:53.354Z,15.07
2023-03-18T16:40:26.676Z,14.33
2023-03-18T16:42:54.629Z,14.67
2023-03-18T16:45:30.376Z,16.53
2023-03-18T16:48:02.839Z,18.83
2023-03-18T16:50:34.048Z,16.57
2023-03-18T16:53:01.285Z,17.07
2023-03-18T16:55:29.096Z,18.20
2023-03-18T16:57:59.004Z,16.33
2023-03-18T17:00:34.617Z,18.20
2023-03-18T17:03:02.420Z,18.60
2023-03-18T17:05:29.449Z,16.80
2023-03-18T17:07:56.436Z,19.67
2023-03-18T17:10:26.519Z,19.70
2023-03-18T17:12:57.682Z,19.47
2023-03-18T17:15:29.318Z,19.90
2023-03-18T17:17:58.768Z,17.67
2023-03-18T17:20:30.611Z,16.70
2023-03-18T17:22:57.443Z,17.07
2023-03-18T17:25:27.400Z,18.10
2023-03-18T17:27:57.863Z,17.73
2023-03-18T17:30:37.065Z,22.97
2023-03-18T17:33:05.500Z,21.03
2023-03-18T17:35:33.173Z,24.03
2023-03-18T17:38:00.951Z,21.83
2023-03-18T17:40:30.673Z,20.73
2023-03-18T17:42:57.687Z,19.70
2023-03-18T17:45:32.608Z,21.33
2023-03-18T17:48:22.568Z,20.97
2023-03-18T17:50:51.840Z,21.40
2023-03-18T17:53:25.572Z,22.13
2023-03-18T17:55:53.882Z,20.40
2023-03-18T17:58:23.333Z,21.00
2023-03-18T18:00:50.463Z,22.60
2023-03-18T18:03:26.847Z,22.53
2023-03-18T18:05:57.691Z,21.00
2023-03-18T18:08:25.866Z,25.70
2023-03-18T18:10:58.353Z,24.20
2023-03-18T18:13:25.250Z,24.37
2023-03-18T18:15:52.843Z,25.87
2023-03-18T18:18:25.982Z,24.70
2023-03-18T18:20:58.697Z,26.20
2023-03-18T18:23:31.411Z,25.20
2023-03-18T18:26:09.436Z,27.23
2023-03-18T18:28:46.535Z,25.73
2023-03-18T18:31:14.782Z,28.53
2023-03-18T18:33:44.364Z,25.67
2023-03-18T18:36:13.097Z,29.17
2023-03-18T18:38:43.805Z,26.53
2023-03-18T18:41:10.997Z,26.70
2023-03-18T18:43:38.077Z,27.37
2023-03-18T18:46:13.600Z,26.20
2023-03-18T18:48:41.044Z,26.60
2023-03-18T18:51:16.054Z,27.13
2023-03-18T18:53:43.650Z,27.93
2023-03-18T18:56:20.051Z,28.40
2023-03-18T18:58:47.987Z,28.63
2023-03-18T19:01:15.305Z,26.10
2023-03-18T19:03:43.038Z,25.80
2023-03-18T19:06:31.514Z,24.73
2023-03-18T19:09:00.880Z,23.73
2023-03-18T19:11:28.713Z,22.83
2023-03-18T19:14:20.388Z,24.73
2023-03-18T19:16:48.528Z,27.17
2023-03-18T19:19:21.393Z,28.30
2023-03-18T19:21:49.858Z,26.20
2023-03-18T19:24:36.102Z,25.77
2023-03-18T19:27:07.311Z,28.97
2023-03-18T19:29:34.453Z,29.97
2023-03-18T19:32:01.942Z,31.47
2023-03-18T19:34:32.468Z,30.83
2023-03-18T19:37:03.015Z,33.60
2023-03-18T19:39:30.158Z,31.30
2023-03-18T19:41:59.976Z,35.33
2023-03-18T19:44:27.431Z,35.27
2023-03-18T19:46:56.531Z,36.90
2023-03-18T19:49:35.471Z,37.27
2023-03-18T19:52:16.745Z,31.03
2023-03-18T19:54:45.421Z,30.37
2023-03-18T19:57:18.361Z,32.67
2023-03-18T19:59:48.652Z,32.13
2023-03-18T20:02:21.184Z,31.27
2023-03-18T20:04:50.293Z,30.47
2023-03-18T20:07:19.045Z,32.33
2023-03-18T20:09:46.309Z,32.17
2023-03-18T20:12:37.902Z,37.30
2023-03-18T20:15:08.142Z,38.23
2023-03-18T20:17:46.363Z,36.43
2023-03-18T20:20:16.926Z,32.33
2023-03-18T20:22:48.275Z,33.67
2023-03-18T20:25:28.583Z,31.60
2023-03-18T20:27:57.432Z,35.93
2023-03-18T20:30:27.065Z,36.23
2023-03-18T20:32:54.583Z,35.23
2023-03-18T20:35:22.948Z,37.50
2023-03-18T20:37:49.975Z,39.27
2023-03-18T20:40:24.092Z,39.60
2023-03-18T20:42:52.814Z,38.73
2023-03-18T20:45:21.192Z,37.20
2023-03-18T20:47:48.535Z,43.80
2023-03-18T20:50:21.421Z,40.87
2023-03-18T20:52:48.780Z,39.60
2023-03-18T20:55:25.725Z,36.97
2023-03-18T20:57:53.659Z,39.60
2023-03-18T21:00:29.398Z,40.73
2023-03-18T21:02:58.531Z,38.47
2023-03-18T21:05:26.751Z,40.97
2023-03-18T21:07:53.945Z,36.93
2023-03-18T21:10:26.442Z,38.27
2023-03-18T21:12:54.108Z,40.40
2023-03-18T21:15:27.348Z,41.37
2023-03-18T21:17:55.304Z,41.00
2023-03-18T21:20:27.412Z,40.27
2023-03-18T21:22:56.433Z,39.27
2023-03-18T21:25:29.001Z,41.20
2023-03-18T21:27:56.327Z,39.77
2023-03-18T21:30:24.034Z,39.37
2023-03-18T21:32:51.284Z,41.27
2023-03-18T21:35:21.946Z,39.17
2023-03-18T21:37:49.525Z,44.47
2023-03-18T21:40:22.647Z,43.37
2023-03-18T21:42:51.152Z,42.47
2023-03-18T21:45:21.315Z,43.83
2023-03-18T21:47:48.488Z,44.50
2023-03-18T21:50:26.882Z,43.27
2023-03-18T21:52:54.673Z,40.80
2023-03-18T21:55:22.752Z,39.23
2023-03-18T21:57:49.740Z,41.17
2023-03-18T22:00:20.891Z,39.17
2023-03-18T22:02:48.103Z,40.20
2023-03-18T22:05:21.924Z,40.43
2023-03-18T22:07:50.700Z,41.83
2023-03-18T22:10:23.424Z,38.97
2023-03-18T22:12:50.880Z,39.40
2023-03-18T22:15:23.734Z,38.20
2023-03-18T22:17:51.600Z,36.53
2023-03-18T22:20:18.651Z,36.93
2023-03-18T22:22:45.949Z,33.13
2023-03-18T22:25:36.586Z,31.53
2023-03-18T22:28:03.841Z,29.10
2023-03-18T22:30:33.145Z,26.77
2023-03-18T22:33:02.322Z,24.60
2023-03-18T22:35:30.195Z,25.00
2023-03-18T22:37:57.327Z,23.93
2023-03-18T22:40:29.826Z,22.97
2023-03-18T22:43:00.150Z,23.27
2023-03-18T22:45:34.416Z,22.67
2023-03-18T22:48:04.449Z,22.40
2023-03-18T22:50:33.957Z,21.27
2023-03-18T22:53:03.962Z,21.83
2023-03-18T22:55:36.949Z,20.47
2023-03-18T22:58:03.929Z,19.50
2023-03-18T23:00:30.933Z,20.57
2023-03-18T23:02:58.811Z,20.63
2023-03-18T23:05:29.730Z,19.80
2023-03-18T23:07:57.469Z,20.23
2023-03-18T23:10:25.148Z,21.23
2023-03-18T23:12:52.246Z,20.43
2023-03-18T23:15:21.753Z,20.73
2023-03-18T23:17:49.537Z,20.93
2023-03-18T23:20:18.286Z,19.70
2023-03-18T23:22:46.038Z,20.03
2023-03-18T23:25:16.844Z,21.30
2023-03-18T23:27:44.579Z,22.30
2023-03-18T23:30:13.526Z,23.13
2023-03-18T23:32:41.285Z,21.80
2023-03-18T23:35:09.928Z,21.43
2023-03-18T23:37:36.819Z,22.13
2023-03-18T23:40:05.478Z,25.03
2023-03-18T23:42:32.498Z,25.40
2023-03-18T23:44:59.503Z,25.37
2023-03-18T23:47:26.423Z,23.43
2023-03-18T23:49:53.407Z,24.60
2023-03-18T23:52:20.318Z,48.63
2023-03-18T23:54:47.462Z,36.63
2023-03-18T23:57:15.161Z,33.30
2023-03-18T23:59:42.310Z,30.20
